Terminal Aerodrome Forecast
Issued by NWS Portland, OR

Home | Current Version | Previous Version | Text Only | Print | Product List | Glossary On
Versions: 1 2 3 4 5 6 7 8 9 10 11 12 13 14 15 16 17 18 19 20 21 22 23 24 25 26 27 28 29 30
000
FTUS46 KPQR 251728
TAFAST
TAF
KAST 251728Z 2518/2618 19007KT P6SM -SHRA SCT025 BKN035 BKN060
      TEMPO 2518/2521 BKN025 BKN035
     FM252100 21006KT P6SM VCSH SCT035 BKN050
     FM260200 VRB03KT P6SM SCT060 BKN200
     FM260600 12005KT P6SM SCT070 BKN100
     FM261000 12008KT P6SM -RA BKN045 OVC070=

USA.gov is the U.S. government's official web portal to all federal, state and local government web resources and services.